logo
Search for airport 
image banner adimage banner adimage banner ad
image banner ad

ENTX - Taraldrud / Police Readiness Center (Helipad)

Located in , Norway

ICAO - , IATA -

Data provided by Airmate  

General information

Coordinates: N59°48'14" E10°50'26"
Elevation is 512 feet MSL.
Magnetic variation is 3.8° East
View others Airports in Akershus

Operational data

Special qualification required
Current time UTC:
Current local time:
Weather at : ENGM - Gardermoen ( 46 km )
METAR: ENGM 170620Z 03006KT CAVOK 01/M04 Q1007 NOSIG
TAF: TAF ENGM 170500Z 1706/1806 01007KT CAVOK PROB40 TEMPO 1710/1714 FEW030CB SCT050
View NOTAMs / SUP AIP / TFR affecting this airport [VIEW]
Communications frequencies: [VIEW]

Runways:

Airport contact information

Address: Norway

Satellite view of ENTX